sensor_id;sensor_type;location;lat;lon;timestamp;pressure;altitude;pressure_sealevel;temperature;humidity
83894;BME280;73920;51.902;6.374;2024-03-07T00:00:04;102576.06;;;3.84;84.20
83894;BME280;73920;51.902;6.374;2024-03-07T00:02:30;102565.47;;;3.81;83.85
83894;BME280;73920;51.902;6.374;2024-03-07T00:04:57;102561.06;;;3.80;84.05
83894;BME280;73920;51.902;6.374;2024-03-07T00:07:23;102563.72;;;3.77;83.64
83894;BME280;73920;51.902;6.374;2024-03-07T00:09:49;102559.31;;;3.76;83.74
83894;BME280;73920;51.902;6.374;2024-03-07T00:12:15;102566.38;;;3.75;84.07
83894;BME280;73920;51.902;6.374;2024-03-07T00:14:42;102558.44;;;3.71;83.82
83894;BME280;73920;51.902;6.374;2024-03-07T00:17:08;102563.69;;;3.69;84.10
83894;BME280;73920;51.902;6.374;2024-03-07T00:19:34;102559.31;;;3.65;84.39
83894;BME280;73920;51.902;6.374;2024-03-07T00:22:00;102563.72;;;3.65;84.04
83894;BME280;73920;51.902;6.374;2024-03-07T00:24:26;102568.09;;;3.63;84.55
83894;BME280;73920;51.902;6.374;2024-03-07T00:26:53;102566.38;;;3.62;84.55
83894;BME280;73920;51.902;6.374;2024-03-07T00:29:19;102568.09;;;3.60;83.91
83894;BME280;73920;51.902;6.374;2024-03-07T00:31:46;102571.63;;;3.59;84.26
83894;BME280;73920;51.902;6.374;2024-03-07T00:34:13;102568.09;;;3.55;84.73
83894;BME280;73920;51.902;6.374;2024-03-07T00:36:41;102568.97;;;3.53;84.13
83894;BME280;73920;51.902;6.374;2024-03-07T00:39:07;102577.78;;;3.55;83.98
83894;BME280;73920;51.902;6.374;2024-03-07T00:41:33;102574.25;;;3.53;83.85
83894;BME280;73920;51.902;6.374;2024-03-07T00:44:00;102571.63;;;3.53;83.97
83894;BME280;73920;51.902;6.374;2024-03-07T00:46:26;102576.03;;;3.55;84.50
83894;BME280;73920;51.902;6.374;2024-03-07T00:48:52;102577.78;;;3.56;84.53
83894;BME280;73920;51.902;6.374;2024-03-07T00:51:18;102577.81;;;3.58;83.99
83894;BME280;73920;51.902;6.374;2024-03-07T00:53:45;102571.63;;;3.57;84.07
83894;BME280;73920;51.902;6.374;2024-03-07T00:56:11;102577.78;;;3.59;84.46
83894;BME280;73920;51.902;6.374;2024-03-07T00:58:37;102568.09;;;3.60;84.42
83894;BME280;73920;51.902;6.374;2024-03-07T01:01:03;102572.50;;;3.59;84.02
83894;BME280;73920;51.902;6.374;2024-03-07T01:03:30;102571.63;;;3.57;84.36
83894;BME280;73920;51.902;6.374;2024-03-07T01:05:56;102569.00;;;3.60;83.91
83894;BME280;73920;51.902;6.374;2024-03-07T01:08:22;102576.91;;;3.59;84.15
83894;BME280;73920;51.902;6.374;2024-03-07T01:10:48;102569.88;;;3.58;84.12
83894;BME280;73920;51.902;6.374;2024-03-07T01:13:14;102543.41;;;3.42;84.09
83894;BME280;73920;51.902;6.374;2024-03-07T01:15:41;102570.75;;;3.57;84.67
83894;BME280;73920;51.902;6.374;2024-03-07T01:18:07;102572.50;;;3.59;84.77
83894;BME280;73920;51.902;6.374;2024-03-07T01:20:33;102568.09;;;3.60;84.47
83894;BME280;73920;51.902;6.374;2024-03-07T01:22:59;102560.16;;;3.60;84.48
83894;BME280;73920;51.902;6.374;2024-03-07T01:25:26;102566.34;;;3.63;84.83
83894;BME280;73920;51.902;6.374;2024-03-07T01:27:52;102569.00;;;3.68;84.56
83894;BME280;73920;51.902;6.374;2024-03-07T01:30:19;102566.38;;;3.68;85.08
83894;BME280;73920;51.902;6.374;2024-03-07T01:32:45;102562.84;;;3.69;84.62
83894;BME280;73920;51.902;6.374;2024-03-07T01:35:11;102566.38;;;3.71;84.94
83894;BME280;73920;51.902;6.374;2024-03-07T01:37:37;102568.13;;;3.72;84.49
83894;BME280;73920;51.902;6.374;2024-03-07T01:40:04;102555.78;;;3.74;84.34
83894;BME280;73920;51.902;6.374;2024-03-07T01:42:31;102556.66;;;3.77;84.02
83894;BME280;73920;51.902;6.374;2024-03-07T01:44:57;102557.56;;;3.79;84.48
83894;BME280;73920;51.902;6.374;2024-03-07T01:47:24;102561.09;;;3.83;84.49
83894;BME280;73920;51.902;6.374;2024-03-07T01:49:50;102559.31;;;3.85;84.90
83894;BME280;73920;51.902;6.374;2024-03-07T01:52:17;102559.31;;;3.89;84.21
83894;BME280;73920;51.902;6.374;2024-03-07T01:54:44;102554.03;;;3.94;84.91
83894;BME280;73920;51.902;6.374;2024-03-07T01:57:10;102556.69;;;4.00;84.85
83894;BME280;73920;51.902;6.374;2024-03-07T01:59:38;102556.69;;;4.05;84.41
83894;BME280;73920;51.902;6.374;2024-03-07T02:02:04;102554.00;;;4.09;84.41
83894;BME280;73920;51.902;6.374;2024-03-07T02:04:31;102546.97;;;4.10;84.91
83894;BME280;73920;51.902;6.374;2024-03-07T02:06:57;102548.75;;;4.12;84.16
83894;BME280;73920;51.902;6.374;2024-03-07T02:09:23;102550.50;;;4.15;84.71
83894;BME280;73920;51.902;6.374;2024-03-07T02:11:50;102554.00;;;4.17;84.74
83894;BME280;73920;51.902;6.374;2024-03-07T02:14:16;102547.84;;;4.16;84.55
83894;BME280;73920;51.902;6.374;2024-03-07T02:16:43;102551.41;;;4.12;84.27
83894;BME280;73920;51.902;6.374;2024-03-07T02:19:15;102542.56;;;4.07;84.95
83894;BME280;73920;51.902;6.374;2024-03-07T02:21:41;102541.66;;;4.02;84.37
83894;BME280;73920;51.902;6.374;2024-03-07T02:24:08;102531.09;;;3.96;84.62
83894;BME280;73920;51.902;6.374;2024-03-07T02:26:34;102526.69;;;3.90;84.95
83894;BME280;73920;51.902;6.374;2024-03-07T02:29:00;102524.91;;;3.85;84.74
83894;BME280;73920;51.902;6.374;2024-03-07T02:31:26;102524.03;;;3.78;85.10
83894;BME280;73920;51.902;6.374;2024-03-07T02:33:52;102522.25;;;3.73;84.71
83894;BME280;73920;51.902;6.374;2024-03-07T02:36:19;102511.72;;;3.65;85.44
83894;BME280;73920;51.902;6.374;2024-03-07T02:38:45;102522.28;;;3.61;85.29
83894;BME280;73920;51.902;6.374;2024-03-07T02:41:11;102516.09;;;3.56;85.35
83894;BME280;73920;51.902;6.374;2024-03-07T02:43:37;102518.72;;;3.50;84.61
83894;BME280;73920;51.902;6.374;2024-03-07T02:46:04;102518.72;;;3.45;85.33
83894;BME280;73920;51.902;6.374;2024-03-07T02:48:30;102519.59;;;3.39;85.60
83894;BME280;73920;51.902;6.374;2024-03-07T02:50:56;102518.72;;;3.36;85.23
83894;BME280;73920;51.902;6.374;2024-03-07T02:53:22;102516.94;;;3.32;85.44
83894;BME280;73920;51.902;6.374;2024-03-07T02:55:49;102523.09;;;3.28;84.95
83894;BME280;73920;51.902;6.374;2024-03-07T02:58:15;102523.97;;;3.25;85.47
83894;BME280;73920;51.902;6.374;2024-03-07T03:00:41;102520.44;;;3.20;84.49
83894;BME280;73920;51.902;6.374;2024-03-07T03:03:07;102517.78;;;3.16;85.21
83894;BME280;73920;51.902;6.374;2024-03-07T03:05:33;102512.47;;;3.13;85.34
83894;BME280;73920;51.902;6.374;2024-03-07T03:08:00;102495.69;;;2.97;85.49
83894;BME280;73920;51.902;6.374;2024-03-07T03:10:26;102517.75;;;3.07;85.30
83894;BME280;73920;51.902;6.374;2024-03-07T03:12:53;102510.69;;;3.04;84.87
83894;BME280;73920;51.902;6.374;2024-03-07T03:15:20;102515.09;;;2.99;84.77
83894;BME280;73920;51.902;6.374;2024-03-07T03:17:47;102510.69;;;2.96;84.64
83894;BME280;73920;51.902;6.374;2024-03-07T03:20:13;102512.44;;;2.94;84.71
83894;BME280;73920;51.902;6.374;2024-03-07T03:22:40;102514.19;;;2.91;84.77
83894;BME280;73920;51.902;6.374;2024-03-07T03:25:06;102507.97;;;2.86;84.75
83894;BME280;73920;51.902;6.374;2024-03-07T03:27:33;102504.47;;;2.81;85.50
83894;BME280;73920;51.902;6.374;2024-03-07T03:29:59;102503.56;;;2.77;85.37
83894;BME280;73920;51.902;6.374;2024-03-07T03:32:25;102501.75;;;2.72;85.59
83894;BME280;73920;51.902;6.374;2024-03-07T03:34:51;102506.19;;;2.71;84.89
83894;BME280;73920;51.902;6.374;2024-03-07T03:37:18;102500.87;;;2.70;85.29
83894;BME280;73920;51.902;6.374;2024-03-07T03:39:44;102502.62;;;2.66;85.52
83894;BME280;73920;51.902;6.374;2024-03-07T03:42:10;102507.03;;;2.66;85.39
83894;BME280;73920;51.902;6.374;2024-03-07T03:44:37;102510.53;;;2.65;84.92
83894;BME280;73920;51.902;6.374;2024-03-07T03:47:03;102509.66;;;2.63;86.08
83894;BME280;73920;51.902;6.374;2024-03-07T03:49:30;102494.69;;;2.59;85.61
83894;BME280;73920;51.902;6.374;2024-03-07T03:51:56;102500.81;;;2.58;85.63
83894;BME280;73920;51.902;6.374;2024-03-07T03:54:22;102492.91;;;2.53;85.34
83894;BME280;73920;51.902;6.374;2024-03-07T03:56:48;102497.28;;;2.50;85.41
83894;BME280;73920;51.902;6.374;2024-03-07T03:59:15;102499.91;;;2.48;85.91
83894;BME280;73920;51.902;6.374;2024-03-07T04:01:41;102495.50;;;2.45;85.15
83894;BME280;73920;51.902;6.374;2024-03-07T04:04:07;102499.00;;;2.44;86.04
83894;BME280;73920;51.902;6.374;2024-03-07T04:06:33;102491.06;;;2.43;85.26
83894;BME280;73920;51.902;6.374;2024-03-07T04:08:59;102492.81;;;2.41;85.64
83894;BME280;73920;51.902;6.374;2024-03-07T04:11:26;102488.44;;;2.38;85.10
83894;BME280;73920;51.902;6.374;2024-03-07T04:13:52;102475.19;;;2.35;85.81
83894;BME280;73920;51.902;6.374;2024-03-07T04:16:18;102486.63;;;2.33;85.97
83894;BME280;73920;51.902;6.374;2024-03-07T04:18:44;102484.84;;;2.30;85.28
83894;BME280;73920;51.902;6.374;2024-03-07T04:21:11;102478.69;;;2.30;86.12
83894;BME280;73920;51.902;6.374;2024-03-07T04:23:40;102481.31;;;2.28;85.87
83894;BME280;73920;51.902;6.374;2024-03-07T04:26:06;102473.41;;;2.27;85.35
83894;BME280;73920;51.902;6.374;2024-03-07T04:28:32;102479.53;;;2.24;85.08
83894;BME280;73920;51.902;6.374;2024-03-07T04:30:59;102477.78;;;2.23;86.21
83894;BME280;73920;51.902;6.374;2024-03-07T04:33:25;102485.69;;;2.23;85.92
83894;BME280;73920;51.902;6.374;2024-03-07T04:35:51;102478.63;;;2.21;85.10
83894;BME280;73920;51.902;6.374;2024-03-07T04:38:17;102477.78;;;2.20;85.32
83894;BME280;73920;51.902;6.374;2024-03-07T04:40:43;102476.84;;;2.18;85.85
83894;BME280;73920;51.902;6.374;2024-03-07T04:43:10;102476.84;;;2.15;86.25
83894;BME280;73920;51.902;6.374;2024-03-07T04:45:36;102486.50;;;2.15;85.66
83894;BME280;73920;51.902;6.374;2024-03-07T04:48:03;102491.78;;;2.13;86.01
83894;BME280;73920;51.902;6.374;2024-03-07T04:50:30;102486.50;;;2.12;86.30
83894;BME280;73920;51.902;6.374;2024-03-07T04:52:56;102486.47;;;2.10;85.27
83894;BME280;73920;51.902;6.374;2024-03-07T04:55:23;102495.28;;;2.09;85.58
83894;BME280;73920;51.902;6.374;2024-03-07T04:57:49;102494.37;;;2.07;85.73
83894;BME280;73920;51.902;6.374;2024-03-07T05:00:15;102491.75;;;2.06;85.78
83894;BME280;73920;51.902;6.374;2024-03-07T05:02:42;102485.56;;;2.05;85.00
83894;BME280;73920;51.902;6.374;2024-03-07T05:05:09;102490.81;;;2.04;85.38
83894;BME280;73920;51.902;6.374;2024-03-07T05:07:36;102490.84;;;2.02;86.19
83894;BME280;73920;51.902;6.374;2024-03-07T05:10:06;102485.50;;;1.99;85.48
83894;BME280;73920;51.902;6.374;2024-03-07T05:12:33;102495.22;;;1.98;85.60
83894;BME280;73920;51.902;6.374;2024-03-07T05:15:00;102490.78;;;1.97;85.76
83894;BME280;73920;51.902;6.374;2024-03-07T05:17:26;102489.91;;;1.97;85.39
83894;BME280;73920;51.902;6.374;2024-03-07T05:19:52;102492.53;;;1.97;86.00
83894;BME280;73920;51.902;6.374;2024-03-07T05:22:18;102491.66;;;1.95;85.98
83894;BME280;73920;51.902;6.374;2024-03-07T05:24:44;102500.44;;;1.94;85.76
83894;BME280;73920;51.902;6.374;2024-03-07T05:27:11;102486.34;;;1.92;86.18
83894;BME280;73920;51.902;6.374;2024-03-07T05:29:38;102492.50;;;1.92;85.80
83894;BME280;73920;51.902;6.374;2024-03-07T05:34:40;102491.59;;;1.89;85.86
83894;BME280;73920;51.902;6.374;2024-03-07T05:37:06;102496.00;;;1.88;85.35
83894;BME280;73920;51.902;6.374;2024-03-07T05:39:33;102492.47;;;1.86;85.61
83894;BME280;73920;51.902;6.374;2024-03-07T05:41:59;102486.31;;;1.84;86.24
83894;BME280;73920;51.902;6.374;2024-03-07T05:44:25;102488.06;;;1.84;85.96
83894;BME280;73920;51.902;6.374;2024-03-07T05:46:51;102487.19;;;1.83;85.32
83894;BME280;73920;51.902;6.374;2024-03-07T05:49:17;102489.81;;;1.85;85.48
83894;BME280;73920;51.902;6.374;2024-03-07T05:51:44;102482.78;;;1.84;85.73
83894;BME280;73920;51.902;6.374;2024-03-07T05:54:13;102482.75;;;1.82;85.63
83894;BME280;73920;51.902;6.374;2024-03-07T05:56:40;102487.19;;;1.83;86.19
83894;BME280;73920;51.902;6.374;2024-03-07T05:59:07;102486.28;;;1.83;85.59
83894;BME280;73920;51.902;6.374;2024-03-07T06:01:34;102482.78;;;1.84;85.86
83894;BME280;73920;51.902;6.374;2024-03-07T06:04:01;102476.63;;;1.83;85.73
83894;BME280;73920;51.902;6.374;2024-03-07T06:06:28;102482.78;;;1.85;85.47
83894;BME280;73920;51.902;6.374;2024-03-07T06:08:55;102484.53;;;1.85;85.93
83894;BME280;73920;51.902;6.374;2024-03-07T06:11:21;102486.31;;;1.86;85.85
83894;BME280;73920;51.902;6.374;2024-03-07T06:13:48;102492.50;;;1.89;85.78
83894;BME280;73920;51.902;6.374;2024-03-07T06:16:14;102501.31;;;1.91;85.94
83894;BME280;73920;51.902;6.374;2024-03-07T06:18:43;102500.44;;;1.91;85.74
83894;BME280;73920;51.902;6.374;2024-03-07T06:21:10;102495.16;;;1.91;85.54
83894;BME280;73920;51.902;6.374;2024-03-07T06:23:36;102505.72;;;1.94;85.74
83894;BME280;73920;51.902;6.374;2024-03-07T06:26:03;102512.78;;;1.98;85.33
83894;BME280;73920;51.902;6.374;2024-03-07T06:28:29;102504.00;;;2.01;86.58
83894;BME280;73920;51.902;6.374;2024-03-07T06:30:56;102501.37;;;2.04;86.57
83894;BME280;73920;51.902;6.374;2024-03-07T06:33:23;102506.69;;;2.08;85.62
83894;BME280;73920;51.902;6.374;2024-03-07T06:35:50;102499.66;;;2.10;86.18
83894;BME280;73920;51.902;6.374;2024-03-07T06:38:16;102499.69;;;2.15;86.51
83894;BME280;73920;51.902;6.374;2024-03-07T06:40:43;102505.00;;;2.16;86.01
83894;BME280;73920;51.902;6.374;2024-03-07T06:43:09;102505.88;;;2.18;86.58
83894;BME280;73920;51.902;6.374;2024-03-07T06:45:36;102501.50;;;2.20;86.33
83894;BME280;73920;51.902;6.374;2024-03-07T06:48:07;102501.50;;;2.25;85.79
83894;BME280;73920;51.902;6.374;2024-03-07T06:50:34;102498.91;;;2.26;86.49
83894;BME280;73920;51.902;6.374;2024-03-07T06:53:01;102482.16;;;2.21;86.51
83894;BME280;73920;51.902;6.374;2024-03-07T06:55:27;102453.06;;;2.06;85.75
83894;BME280;73920;51.902;6.374;2024-03-07T06:57:54;102502.47;;;2.39;85.87
83894;BME280;73920;51.902;6.374;2024-03-07T07:00:20;102501.63;;;2.43;86.68
83894;BME280;73920;51.902;6.374;2024-03-07T07:02:47;102506.91;;;2.46;86.20
83894;BME280;73920;51.902;6.374;2024-03-07T07:05:14;102506.06;;;2.50;86.12
83894;BME280;73920;51.902;6.374;2024-03-07T07:07:41;102500.81;;;2.55;86.42
83894;BME280;73920;51.902;6.374;2024-03-07T07:10:09;102505.22;;;2.59;86.41
83894;BME280;73920;51.902;6.374;2024-03-07T07:12:38;102503.50;;;2.62;86.41
83894;BME280;73920;51.902;6.374;2024-03-07T07:15:05;102511.44;;;2.68;86.39
83894;BME280;73920;51.902;6.374;2024-03-07T07:17:31;102513.22;;;2.74;86.09
83894;BME280;73920;51.902;6.374;2024-03-07T07:19:58;102507.97;;;2.77;86.14
83894;BME280;73920;51.902;6.374;2024-03-07T07:22:25;102510.63;;;2.83;86.19
83894;BME280;73920;51.902;6.374;2024-03-07T07:24:52;102506.25;;;2.88;86.21
83894;BME280;73920;51.902;6.374;2024-03-07T07:27:18;102513.31;;;2.95;85.60
83894;BME280;73920;51.902;6.374;2024-03-07T07:29:45;102509.81;;;3.02;85.62
83894;BME280;73920;51.902;6.374;2024-03-07T07:32:11;102504.53;;;3.08;85.44
83894;BME280;73920;51.902;6.374;2024-03-07T07:34:38;102505.41;;;3.12;85.90
83894;BME280;73920;51.902;6.374;2024-03-07T07:37:04;102501.06;;;3.18;85.46
83894;BME280;73920;51.902;6.374;2024-03-07T07:39:31;102500.19;;;3.24;84.94
83894;BME280;73920;51.902;6.374;2024-03-07T07:41:57;102497.56;;;3.31;85.24
83894;BME280;73920;51.902;6.374;2024-03-07T07:44:23;102500.19;;;3.40;85.20
83894;BME280;73920;51.902;6.374;2024-03-07T07:46:50;102499.31;;;3.47;85.58
83894;BME280;73920;51.902;6.374;2024-03-07T07:49:16;102498.47;;;3.58;85.12
83894;BME280;73920;51.902;6.374;2024-03-07T07:51:42;102499.38;;;3.69;84.78
83894;BME280;73920;51.902;6.374;2024-03-07T07:54:08;102504.63;;;3.78;84.60
83894;BME280;73920;51.902;6.374;2024-03-07T07:56:35;102500.22;;;3.87;84.10
83894;BME280;73920;51.902;6.374;2024-03-07T07:59:01;102501.09;;;3.98;84.18
83894;BME280;73920;51.902;6.374;2024-03-07T08:01:28;102494.91;;;4.06;83.88
83894;BME280;73920;51.902;6.374;2024-03-07T08:03:54;102495.78;;;4.17;83.25
83894;BME280;73920;51.902;6.374;2024-03-07T08:06:20;102495.75;;;4.27;83.47
83894;BME280;73920;51.902;6.374;2024-03-07T08:08:46;102486.91;;;4.39;82.59
83894;BME280;73920;51.902;6.374;2024-03-07T08:11:13;102485.09;;;4.48;81.29
83894;BME280;73920;51.902;6.374;2024-03-07T08:13:40;102483.31;;;4.57;81.73
83894;BME280;73920;51.902;6.374;2024-03-07T08:16:07;102487.69;;;4.68;81.66
83894;BME280;73920;51.902;6.374;2024-03-07T08:18:33;102483.22;;;4.78;80.96
83894;BME280;73920;51.902;6.374;2024-03-07T08:20:59;102481.44;;;4.87;80.04
83894;BME280;73920;51.902;6.374;2024-03-07T08:23:26;102478.69;;;5.00;79.81
83894;BME280;73920;51.902;6.374;2024-03-07T08:25:53;102476.88;;;5.11;78.91
83894;BME280;73920;51.902;6.374;2024-03-07T08:28:20;102475.88;;;5.28;79.42
83894;BME280;73920;51.902;6.374;2024-03-07T08:30:46;102474.00;;;5.45;78.72
83894;BME280;73920;51.902;6.374;2024-03-07T08:33:12;102476.47;;;5.67;78.43
83894;BME280;73920;51.902;6.374;2024-03-07T08:35:38;102473.41;;;6.15;77.44
83894;BME280;73920;51.902;6.374;2024-03-07T08:38:04;102472.47;;;6.94;75.83
83894;BME280;73920;51.902;6.374;2024-03-07T08:40:31;102473.87;;;7.76;73.28
83894;BME280;73920;51.902;6.374;2024-03-07T08:42:58;102469.09;;;8.45;71.10
83894;BME280;73920;51.902;6.374;2024-03-07T08:45:25;102469.56;;;9.07;68.26
83894;BME280;73920;51.902;6.374;2024-03-07T08:47:56;102469.19;;;9.59;65.42
83894;BME280;73920;51.902;6.374;2024-03-07T08:50:24;102466.63;;;9.91;63.34
83894;BME280;73920;51.902;6.374;2024-03-07T08:52:50;102470.09;;;10.28;62.82
83894;BME280;73920;51.902;6.374;2024-03-07T08:55:20;102466.03;;;10.77;61.56
83894;BME280;73920;51.902;6.374;2024-03-07T08:57:47;102464.69;;;11.21;60.14
83894;BME280;73920;51.902;6.374;2024-03-07T09:00:14;102460.06;;;11.54;57.62
83894;BME280;73920;51.902;6.374;2024-03-07T09:02:41;102460.59;;;11.91;56.54
83894;BME280;73920;51.902;6.374;2024-03-07T09:05:08;102454.19;;;12.21;53.69
83894;BME280;73920;51.902;6.374;2024-03-07T09:07:34;102444.09;;;12.53;55.05
83894;BME280;73920;51.902;6.374;2024-03-07T09:10:00;102427.97;;;12.99;52.95
83894;BME280;73920;51.902;6.374;2024-03-07T09:12:26;102434.81;;;13.31;51.67
83894;BME280;73920;51.902;6.374;2024-03-07T09:14:53;102434.47;;;12.94;52.09
83894;BME280;73920;51.902;6.374;2024-03-07T09:17:20;102444.56;;;12.41;53.43
83894;BME280;73920;51.902;6.374;2024-03-07T09:19:46;102436.19;;;12.00;53.64
83894;BME280;73920;51.902;6.374;2024-03-07T09:22:12;102444.50;;;11.39;54.46
83894;BME280;73920;51.902;6.374;2024-03-07T09:24:38;102446.66;;;10.98;57.41
83894;BME280;73920;51.902;6.374;2024-03-07T09:27:05;102442.63;;;11.13;57.69
83894;BME280;73920;51.902;6.374;2024-03-07T09:29:31;102444.47;;;11.11;57.57
83894;BME280;73920;51.902;6.374;2024-03-07T09:31:57;102445.12;;;10.90;56.95
83894;BME280;73920;51.902;6.374;2024-03-07T09:34:24;102450.94;;;10.74;58.23
83894;BME280;73920;51.902;6.374;2024-03-07T09:36:51;102455.50;;;10.71;56.85
83894;BME280;73920;51.902;6.374;2024-03-07T09:39:18;102464.91;;;10.55;58.14
83894;BME280;73920;51.902;6.374;2024-03-07T09:41:45;102452.28;;;10.27;58.68
83894;BME280;73920;51.902;6.374;2024-03-07T09:44:15;102448.50;;;10.02;58.74
83894;BME280;73920;51.902;6.374;2024-03-07T09:46:45;102454.78;;;9.66;60.31
83894;BME280;73920;51.902;6.374;2024-03-07T09:49:14;102458.91;;;9.44;61.67
83894;BME280;73920;51.902;6.374;2024-03-07T09:51:40;102453.94;;;9.28;61.39
83894;BME280;73920;51.902;6.374;2024-03-07T09:54:06;102461.47;;;9.11;60.37
83894;BME280;73920;51.902;6.374;2024-03-07T09:56:34;102459.34;;;8.85;61.77
83894;BME280;73920;51.902;6.374;2024-03-07T09:59:02;102456.06;;;8.73;62.04
83894;BME280;73920;51.902;6.374;2024-03-07T10:01:32;102454.53;;;8.61;63.25
83894;BME280;73920;51.902;6.374;2024-03-07T10:04:00;102457.34;;;8.54;63.53
83894;BME280;73920;51.902;6.374;2024-03-07T10:06:27;102455.69;;;8.50;63.90
83894;BME280;73920;51.902;6.374;2024-03-07T10:08:54;102452.97;;;8.51;63.24
83894;BME280;73920;51.902;6.374;2024-03-07T10:11:20;102441.34;;;8.54;63.62
83894;BME280;73920;51.902;6.374;2024-03-07T10:13:46;102442.06;;;8.62;63.62
83894;BME280;73920;51.902;6.374;2024-03-07T10:16:13;102442.81;;;8.68;63.03
83894;BME280;73920;51.902;6.374;2024-03-07T10:18:42;102441.44;;;8.90;61.97
83894;BME280;73920;51.902;6.374;2024-03-07T10:21:08;102437.47;;;9.10;63.13
83894;BME280;73920;51.902;6.374;2024-03-07T10:23:34;102440.78;;;9.19;61.93
83894;BME280;73920;51.902;6.374;2024-03-07T10:26:01;102449.97;;;9.08;61.60
83894;BME280;73920;51.902;6.374;2024-03-07T10:28:27;102443.13;;;8.95;61.70
83894;BME280;73920;51.902;6.374;2024-03-07T10:30:54;102435.19;;;8.93;62.76
83894;BME280;73920;51.902;6.374;2024-03-07T10:33:20;102431.59;;;8.94;62.08
83894;BME280;73920;51.902;6.374;2024-03-07T10:35:49;102422.69;;;8.95;62.57
83894;BME280;73920;51.902;6.374;2024-03-07T10:38:16;102417.19;;;9.01;61.95
83894;BME280;73920;51.902;6.374;2024-03-07T10:40:42;102416.34;;;9.01;62.06
83894;BME280;73920;51.902;6.374;2024-03-07T10:43:12;102407.31;;;9.05;61.73
83894;BME280;73920;51.902;6.374;2024-03-07T10:45:48;102420.41;;;9.17;61.45
83894;BME280;73920;51.902;6.374;2024-03-07T10:48:20;102417.53;;;9.26;61.42
83894;BME280;73920;51.902;6.374;2024-03-07T11:01:23;102421.16;;;10.26;58.86
83894;BME280;73920;51.902;6.374;2024-03-07T11:03:52;102417.19;;;10.40;58.47
83894;BME280;73920;51.902;6.374;2024-03-07T11:06:18;102407.19;;;10.46;58.06
83894;BME280;73920;51.902;6.374;2024-03-07T11:08:45;102403.47;;;10.52;57.15
83894;BME280;73920;51.902;6.374;2024-03-07T11:11:12;102395.63;;;10.46;57.60
83894;BME280;73920;51.902;6.374;2024-03-07T11:13:39;102397.19;;;10.53;58.84
83894;BME280;73920;51.902;6.374;2024-03-07T11:16:07;102393.50;;;10.57;58.16
83894;BME280;73920;51.902;6.374;2024-03-07T11:18:35;102398.03;;;10.55;57.47
83894;BME280;73920;51.902;6.374;2024-03-07T11:21:01;102392.94;;;10.46;58.32
83894;BME280;73920;51.902;6.374;2024-03-07T11:23:31;102379.94;;;10.33;57.71
83894;BME280;73920;51.902;6.374;2024-03-07T11:26:06;102373.84;;;10.28;58.24
83894;BME280;73920;51.902;6.374;2024-03-07T11:28:32;102375.50;;;10.32;57.94
83894;BME280;73920;51.902;6.374;2024-03-07T11:33:37;102361.13;;;10.36;59.24
83894;BME280;73920;51.902;6.374;2024-03-07T11:36:04;102362.69;;;10.45;57.88
83894;BME280;73920;51.902;6.374;2024-03-07T11:38:31;102362.75;;;10.42;59.15
83894;BME280;73920;51.902;6.374;2024-03-07T11:41:00;102363.59;;;10.44;59.43
83894;BME280;73920;51.902;6.374;2024-03-07T11:43:27;102362.91;;;10.38;59.08
83894;BME280;73920;51.902;6.374;2024-03-07T11:45:53;102361.16;;;10.35;59.17
83894;BME280;73920;51.902;6.374;2024-03-07T11:48:20;102355.87;;;10.33;59.41
83894;BME280;73920;51.902;6.374;2024-03-07T11:50:47;102352.44;;;10.30;60.00
83894;BME280;73920;51.902;6.374;2024-03-07T11:53:13;102349.63;;;10.34;60.34
83894;BME280;73920;51.902;6.374;2024-03-07T11:55:40;102349.44;;;10.41;60.35
83894;BME280;73920;51.902;6.374;2024-03-07T11:58:10;102348.44;;;10.45;59.79
83894;BME280;73920;51.902;6.374;2024-03-07T12:00:37;102341.59;;;10.34;59.67
83894;BME280;73920;51.902;6.374;2024-03-07T12:03:04;102340.06;;;10.26;60.93
83894;BME280;73920;51.902;6.374;2024-03-07T12:05:33;102345.41;;;10.26;60.79
83894;BME280;73920;51.902;6.374;2024-03-07T12:07:59;102335.25;;;10.06;61.41
83894;BME280;73920;51.902;6.374;2024-03-07T12:10:28;102336.41;;;9.98;61.06
83894;BME280;73920;51.902;6.374;2024-03-07T12:12:56;102330.22;;;9.96;61.69
83894;BME280;73920;51.902;6.374;2024-03-07T12:15:22;102326.72;;;9.94;61.40
83894;BME280;73920;51.902;6.374;2024-03-07T12:17:50;102321.47;;;9.91;62.53
83894;BME280;73920;51.902;6.374;2024-03-07T12:20:17;102323.47;;;9.82;62.48
83894;BME280;73920;51.902;6.374;2024-03-07T12:22:43;102317.03;;;9.89;62.79
83894;BME280;73920;51.902;6.374;2024-03-07T12:25:10;102313.38;;;9.92;63.02
83894;BME280;73920;51.902;6.374;2024-03-07T12:27:36;102301.81;;;9.92;63.00
83894;BME280;73920;51.902;6.374;2024-03-07T12:30:03;102284.37;;;9.80;62.62
83894;BME280;73920;51.902;6.374;2024-03-07T12:32:29;102292.88;;;9.94;63.42
83894;BME280;73920;51.902;6.374;2024-03-07T12:34:56;102290.91;;;9.99;62.99
83894;BME280;73920;51.902;6.374;2024-03-07T12:37:22;102288.22;;;10.01;63.30
83894;BME280;73920;51.902;6.374;2024-03-07T12:39:48;102287.31;;;10.02;62.89
83894;BME280;73920;51.902;6.374;2024-03-07T12:42:18;102286.31;;;10.04;62.97
83894;BME280;73920;51.902;6.374;2024-03-07T12:44:46;102284.00;;;9.92;63.16
83894;BME280;73920;51.902;6.374;2024-03-07T12:47:13;102277.19;;;9.80;63.73
83894;BME280;73920;51.902;6.374;2024-03-07T12:49:43;102280.94;;;9.75;64.01
83894;BME280;73920;51.902;6.374;2024-03-07T12:52:10;102245.03;;;9.54;64.92
83894;BME280;73920;51.902;6.374;2024-03-07T12:54:37;102237.06;;;9.53;64.21
83894;BME280;73920;51.902;6.374;2024-03-07T12:57:04;102233.69;;;9.46;64.98
83894;BME280;73920;51.902;6.374;2024-03-07T12:59:30;102265.00;;;9.72;64.99
83894;BME280;73920;51.902;6.374;2024-03-07T13:01:56;102201.88;;;9.37;63.77
83894;BME280;73920;51.902;6.374;2024-03-07T13:04:23;102264.09;;;9.73;64.39
83894;BME280;73920;51.902;6.374;2024-03-07T13:06:49;102261.34;;;9.74;64.44
83894;BME280;73920;51.902;6.374;2024-03-07T13:09:15;102261.13;;;9.83;65.19